Time;durP1;ratioP1;P1;durP2;ratioP2;P2;SDS_P1;SDS_P2;PMS_P1;PMS_P2;Temp;Humidity;BMP_temperature;BMP_pressure;BME280_temperature;BME280_humidity;BME280_pressure;Samples;Min_cycle;Max_cycle;Signal;HPM_P1;HPM_P2
2021/11/30 00:01:20;;;;;;;9.73;5.33;;;;;;;3.20;65.86;96957.31;1782729;80;21001;-40
2021/11/30 00:03:47;;;;;;;8.98;5.15;;;;;;;3.20;66.13;96961.33;1715331;83;21267;-40
2021/11/30 00:06:14;;;;;;;8.45;5.15;;;;;;;3.19;66.31;96965.16;1778689;80;21134;-40
2021/11/30 00:08:41;;;;;;;7.87;4.83;;;;;;;3.19;66.38;96970.52;1778913;80;20991;-40
2021/11/30 00:11:11;;;;;;;5.22;4.37;;;;;;;3.15;65.71;96983.67;1782315;80;20973;-40
2021/11/30 00:13:39;;;;;;;5.72;4.12;;;;;;;3.20;65.84;96998.03;1782149;80;20981;-40
2021/11/30 00:16:10;;;;;;;5.78;4.62;;;;;;;3.20;65.31;96988.66;1782613;80;21511;-40
2021/11/30 00:18:37;;;;;;;7.62;4.92;;;;;;;3.19;65.45;96987.15;1782316;80;21222;-40
2021/11/30 00:21:08;;;;;;;7.12;4.95;;;;;;;3.19;65.47;96999.20;1782310;80;21017;-40
2021/11/30 00:23:35;;;;;;;5.45;4.33;;;;;;;3.21;65.65;97003.03;1782794;80;21053;-40
2021/11/30 00:26:03;;;;;;;8.23;5.17;;;;;;;3.27;65.59;97003.47;1782536;80;20998;-40
2021/11/30 00:28:30;;;;;;;6.50;4.95;;;;;;;3.31;65.78;97011.73;1782431;80;21013;-41
2021/11/30 00:30:57;;;;;;;5.50;4.60;;;;;;;3.30;65.99;97010.75;1782418;80;21143;-40
2021/11/30 00:33:24;;;;;;;6.22;4.97;;;;;;;3.30;65.82;97018.22;1782478;80;21033;-40
2021/11/30 00:35:52;;;;;;;5.72;4.40;;;;;;;3.25;65.52;96999.81;1782284;80;21562;-40
2021/11/30 00:38:19;;;;;;;5.53;4.15;;;;;;;3.24;65.64;97001.53;1782731;80;20998;-40
2021/11/30 00:40:47;;;;;;;5.37;4.10;;;;;;;3.25;65.23;97001.72;1782430;80;21025;-40
2021/11/30 00:43:21;;;;;;;7.00;4.62;;;;;;;3.25;65.13;97005.16;1782269;80;21530;-40
2021/11/30 00:45:55;;;;;;;5.70;4.30;;;;;;;3.25;65.45;97013.77;1782330;80;21531;-40
2021/11/30 00:48:22;;;;;;;5.72;4.12;;;;;;;3.22;65.33;97001.89;1781968;80;21032;-40
2021/11/30 00:50:51;;;;;;;8.03;3.90;;;;;;;3.24;65.15;97021.05;1782694;80;20918;-40
2021/11/30 00:53:20;;;;;;;4.47;3.70;;;;;;;3.28;64.97;97027.77;1782256;80;21036;-40
2021/11/30 00:55:47;;;;;;;5.50;4.03;;;;;;;3.30;64.80;97020.13;1782130;80;22349;-40
2021/11/30 00:58:14;;;;;;;5.33;4.05;;;;;;;3.30;64.72;97025.48;1773980;80;21024;-40
2021/11/30 01:00:41;;;;;;;5.85;4.25;;;;;;;3.28;64.76;97015.16;1774126;80;21341;-40
2021/11/30 01:03:09;;;;;;;6.70;4.17;;;;;;;3.28;64.81;97026.44;1774013;80;21080;-40
2021/11/30 01:05:36;;;;;;;5.47;4.22;;;;;;;3.28;64.65;97047.86;1774163;80;21547;-41
2021/11/30 01:08:05;;;;;;;6.20;4.08;;;;;;;3.29;64.74;97032.00;1773990;80;21150;-40
2021/11/30 01:10:33;;;;;;;4.87;3.77;;;;;;;3.28;64.18;97040.59;1774090;80;21016;-40
2021/11/30 01:12:59;;;;;;;5.22;3.70;;;;;;;3.28;64.12;97025.87;1773971;80;21001;-40
2021/11/30 01:15:26;;;;;;;9.48;4.17;;;;;;;3.26;64.22;97034.05;1774102;80;21014;-40
2021/11/30 01:17:55;;;;;;;5.60;4.00;;;;;;;3.26;64.20;97038.07;1773935;80;20957;-40
2021/11/30 01:20:22;;;;;;;5.47;3.95;;;;;;;3.25;63.97;97028.49;1773994;80;21138;-40
2021/11/30 01:22:49;;;;;;;5.58;3.95;;;;;;;3.23;63.70;97025.43;1773989;80;21020;-40
2021/11/30 01:25:17;;;;;;;4.85;3.85;;;;;;;3.24;64.02;97029.66;1774040;80;21032;-40
2021/11/30 01:27:46;;;;;;;6.55;4.00;;;;;;;3.20;63.95;97023.47;1773512;80;20973;-40
2021/11/30 01:30:14;;;;;;;5.10;3.40;;;;;;;3.17;64.15;97030.34;1752826;80;21040;-41
2021/11/30 01:32:42;;;;;;;6.00;3.98;;;;;;;3.17;64.25;97028.23;1774452;80;21110;-40
2021/11/30 01:35:10;;;;;;;5.28;3.98;;;;;;;3.19;64.65;97036.11;1773996;80;20960;-41
2021/11/30 01:37:38;;;;;;;6.30;3.50;;;;;;;3.17;64.37;97041.05;1774245;80;21480;-40
2021/11/30 01:40:12;;;;;;;4.72;3.55;;;;;;;3.22;64.97;97054.67;1767900;80;20986;-40
2021/11/30 01:42:48;;;;;;;5.20;3.52;;;;;;;3.24;64.92;97045.72;1774386;80;21033;-40
2021/11/30 01:45:19;;;;;;;6.30;3.60;;;;;;;3.23;64.88;97052.20;1772918;80;21099;-40
2021/11/30 01:47:53;;;;;;;4.87;3.93;;;;;;;3.19;64.87;97051.40;1773590;80;20973;-40
2021/11/30 01:50:10;;;;;;;5.08;4.12;;;;;;;3.16;65.25;97044.08;1772323;80;20990;-40
2021/11/30 01:52:38;;;;;;;5.78;3.47;;;;;;;3.13;65.17;97051.52;1774277;80;21049;-41
2021/11/30 01:55:06;;;;;;;4.92;3.65;;;;;;;3.12;65.21;97052.09;1773849;80;21067;-40
2021/11/30 01:57:33;;;;;;;6.15;3.85;;;;;;;3.16;64.96;97030.70;1778514;80;21100;-40
2021/11/30 02:00:00;;;;;;;7.55;4.75;;;;;;;3.15;65.00;97041.97;1782075;80;20894;-40
2021/11/30 02:02:27;;;;;;;5.62;4.55;;;;;;;3.14;65.32;97051.73;1775755;80;20968;-40
2021/11/30 02:04:55;;;;;;;6.10;4.20;;;;;;;3.10;65.51;97050.92;1782140;80;21033;-41
2021/11/30 02:07:24;;;;;;;7.67;4.60;;;;;;;3.08;65.58;97070.02;1782054;80;20957;-40
2021/11/30 02:09:51;;;;;;;7.00;4.70;;;;;;;3.11;65.42;97073.86;1782278;80;21140;-40
2021/11/30 02:12:18;;;;;;;6.17;4.62;;;;;;;3.12;65.71;97076.18;1782284;80;20921;-40
2021/11/30 02:14:46;;;;;;;6.67;5.30;;;;;;;3.07;65.55;97060.44;1782073;80;21005;-40
2021/11/30 02:17:14;;;;;;;6.87;4.97;;;;;;;3.06;65.70;97067.70;1782388;80;21013;-40
2021/11/30 02:19:48;;;;;;;6.60;5.28;;;;;;;3.09;65.92;97064.88;1782280;80;21012;-40
2021/11/30 02:22:13;;;;;;;8.03;5.12;;;;;;;3.14;65.48;97055.74;1782107;80;21085;-40
2021/11/30 02:24:42;;;;;;;7.05;5.45;;;;;;;3.13;65.49;97064.91;1782134;80;20930;-40
2021/11/30 02:27:09;;;;;;;7.22;5.58;;;;;;;3.11;65.45;97058.56;1782304;80;21044;-40
2021/11/30 02:29:38;;;;;;;8.13;5.50;;;;;;;3.08;65.71;97061.21;1782181;80;20988;-40
2021/11/30 02:32:07;;;;;;;6.78;5.22;;;;;;;3.05;65.45;97067.48;1782233;80;21001;-40
2021/11/30 02:34:34;;;;;;;8.13;5.33;;;;;;;3.09;65.69;97064.09;1782375;80;21117;-40
2021/11/30 02:37:09;;;;;;;8.60;6.22;;;;;;;3.06;65.55;97058.89;1782079;80;21015;-41
2021/11/30 02:39:31;;;;;;;9.60;5.40;;;;;;;3.02;65.70;97058.86;1781598;80;21471;-41
2021/11/30 02:41:59;;;;;;;5.97;5.15;;;;;;;2.99;65.83;97059.61;1782054;80;21029;-40
2021/11/30 02:44:26;;;;;;;6.35;5.30;;;;;;;2.98;65.95;97060.73;1782270;80;21538;-40
2021/11/30 02:46:56;;;;;;;8.68;5.70;;;;;;;3.02;65.83;97061.54;1782453;80;21925;-40
2021/11/30 02:49:26;;;;;;;9.10;6.08;;;;;;;2.98;65.85;97075.45;1782368;80;21041;-40
2021/11/30 02:52:05;;;;;;;6.75;5.08;;;;;;;2.99;66.16;97072.21;1785253;80;21068;-40
2021/11/30 02:54:25;;;;;;;7.50;5.10;;;;;;;2.94;66.35;97077.33;1783869;80;21046;-40
2021/11/30 02:56:55;;;;;;;8.33;5.87;;;;;;;2.96;66.29;97073.70;1785234;80;21190;-40
2021/11/30 02:59:24;;;;;;;6.87;5.67;;;;;;;2.96;65.87;97055.53;1785404;80;21116;-41
2021/11/30 03:01:55;;;;;;;8.38;5.87;;;;;;;2.93;66.17;97079.79;1785703;80;21791;-41
2021/11/30 03:04:22;;;;;;;6.80;5.45;;;;;;;2.88;66.23;97070.74;1785124;80;21581;-40
2021/11/30 03:06:49;;;;;;;7.25;6.03;;;;;;;2.89;66.30;97068.28;1784109;80;21543;-40
2021/11/30 03:09:16;;;;;;;8.18;6.30;;;;;;;2.88;66.01;97080.11;1782254;80;21079;-40
2021/11/30 03:12:39;;;;;;;8.35;6.08;;;;;;;2.96;66.30;97080.39;1805618;78;22632;-39
2021/11/30 03:15:09;;;;;;;8.18;6.12;;;;;;;2.85;66.52;97088.10;1780050;80;21502;-39
2021/11/30 03:17:36;;;;;;;8.85;6.22;;;;;;;2.81;66.49;97084.62;1780145;80;21100;-39
2021/11/30 03:20:05;;;;;;;7.80;6.05;;;;;;;2.85;66.63;97092.89;1779797;80;21013;-39
2021/11/30 03:22:33;;;;;;;8.75;6.20;;;;;;;2.88;66.37;97096.17;1779932;80;21529;-39
2021/11/30 03:25:00;;;;;;;8.73;6.55;;;;;;;2.88;66.49;97093.48;1779905;80;21513;-39
2021/11/30 03:27:28;;;;;;;8.88;6.35;;;;;;;2.84;66.38;97112.75;1779912;80;21430;-39
2021/11/30 03:29:56;;;;;;;8.53;5.28;;;;;;;2.84;66.34;97111.41;1748061;80;21132;-39
2021/11/30 03:35:09;;;;;;;7.70;5.75;;;;;;;2.91;66.17;97123.53;1780013;80;21513;-39
2021/11/30 03:37:37;;;;;;;8.33;6.17;;;;;;;2.88;66.47;97114.90;1779842;80;20966;-39
2021/11/30 03:40:10;;;;;;;8.80;6.05;;;;;;;2.86;66.18;97113.70;1779885;80;20962;-39
2021/11/30 03:42:37;;;;;;;7.53;5.65;;;;;;;2.88;66.08;97112.78;1780178;80;21100;-39
2021/11/30 03:45:05;;;;;;;8.63;5.85;;;;;;;2.91;65.97;97124.86;1779868;80;21018;-39
2021/11/30 03:47:32;;;;;;;7.45;5.85;;;;;;;2.85;65.81;97112.95;1779994;80;21017;-39
2021/11/30 03:49:59;;;;;;;8.43;6.40;;;;;;;2.88;66.00;97136.88;1779941;80;20919;-39
2021/11/30 03:52:26;;;;;;;6.75;5.58;;;;;;;2.89;66.30;97135.74;1765411;80;21049;-39
2021/11/30 03:54:53;;;;;;;6.67;5.53;;;;;;;2.89;66.08;97129.05;1753320;81;21135;-39
2021/11/30 03:57:21;;;;;;;8.23;6.03;;;;;;;2.95;66.07;97131.03;1753199;81;20961;-39
2021/11/30 03:59:48;;;;;;;7.90;6.03;;;;;;;2.91;65.95;97138.81;1753329;81;20978;-39
2021/11/30 04:02:16;;;;;;;7.12;5.67;;;;;;;2.89;65.74;97131.16;1753193;81;21012;-39
2021/11/30 04:04:45;;;;;;;8.68;6.55;;;;;;;2.89;66.09;97148.56;1753320;80;21075;-40
2021/11/30 04:07:12;;;;;;;7.83;5.87;;;;;;;2.90;66.17;97152.78;1771552;80;21175;-39
2021/11/30 04:09:41;;;;;;;8.88;6.45;;;;;;;2.93;65.83;97152.05;1784255;79;21484;-39
2021/11/30 04:12:09;;;;;;;8.43;6.47;;;;;;;2.89;65.79;97152.58;1788229;79;21028;-39
2021/11/30 04:14:36;;;;;;;11.12;6.47;;;;;;;2.88;66.01;97164.97;1790411;79;20974;-40
2021/11/30 04:17:06;;;;;;;7.78;5.90;;;;;;;2.87;65.99;97164.76;1790421;79;20985;-40
2021/11/30 04:19:34;;;;;;;7.30;5.67;;;;;;;2.90;66.07;97162.72;1790022;79;21077;-39
2021/11/30 04:22:01;;;;;;;8.50;6.05;;;;;;;2.92;66.01;97162.54;1790332;80;20886;-39
2021/11/30 04:24:28;;;;;;;7.15;5.80;;;;;;;2.89;65.77;97176.66;1789666;80;21507;-40
2021/11/30 04:26:55;;;;;;;8.98;5.47;;;;;;;2.87;65.68;97175.46;1789672;80;21061;-40
2021/11/30 04:29:22;;;;;;;8.18;5.50;;;;;;;2.88;65.44;97166.30;1789777;80;20994;-40
2021/11/30 04:31:50;;;;;;;6.17;4.97;;;;;;;2.92;64.82;97174.58;1789522;80;21158;-39
2021/11/30 04:34:17;;;;;;;7.12;5.12;;;;;;;2.93;64.68;97174.80;1789592;79;21069;-40
2021/11/30 04:36:44;;;;;;;7.08;4.70;;;;;;;2.93;64.48;97168.11;1789590;80;21526;-39
2021/11/30 04:39:11;;;;;;;7.03;4.70;;;;;;;2.89;64.47;97182.01;1789447;80;21025;-39
2021/11/30 04:41:40;;;;;;;5.58;4.58;;;;;;;2.85;64.76;97178.52;1789532;80;20894;-39
2021/11/30 04:44:09;;;;;;;4.15;3.75;;;;;;;2.85;64.12;97186.55;1789532;80;21126;-39
2021/11/30 04:46:49;;;;;;;5.75;4.25;;;;;;;2.83;64.69;97186.13;1789653;80;20917;-39
2021/11/30 04:49:17;;;;;;;6.97;4.60;;;;;;;2.84;64.52;97198.94;1788037;79;21005;-39
2021/11/30 04:51:42;;;;;;;6.95;4.78;;;;;;;2.82;64.92;97195.84;1789587;80;21496;-39
2021/11/30 04:54:10;;;;;;;6.53;5.12;;;;;;;2.83;64.78;97211.55;1789623;79;21021;-39
2021/11/30 04:56:38;;;;;;;7.92;4.47;;;;;;;2.86;64.86;97213.48;1789451;80;21125;-39
2021/11/30 04:59:05;;;;;;;6.28;5.03;;;;;;;2.90;64.62;97221.59;1789368;80;20878;-39
2021/11/30 05:01:32;;;;;;;4.70;4.20;;;;;;;2.93;64.68;97222.19;1789404;80;21603;-39
2021/11/30 05:03:59;;;;;;;5.60;4.28;;;;;;;2.93;64.41;97221.63;1767406;80;21483;-39
2021/11/30 05:06:26;;;;;;;5.12;4.15;;;;;;;2.94;63.97;97237.13;1766711;80;21492;-39
2021/11/30 05:08:54;;;;;;;5.42;4.50;;;;;;;2.95;64.03;97232.73;1789525;80;21122;-39
2021/11/30 05:11:21;;;;;;;5.65;4.20;;;;;;;2.95;63.67;97240.02;1786260;80;21022;-39
2021/11/30 05:13:49;;;;;;;5.62;4.35;;;;;;;2.93;64.38;97248.39;1772823;81;20958;-39
2021/11/30 05:16:16;;;;;;;4.15;3.70;;;;;;;2.93;64.06;97261.77;1770139;79;20965;-39
2021/11/30 05:18:43;;;;;;;6.35;3.98;;;;;;;2.93;64.07;97263.11;1766716;81;21542;-39
2021/11/30 05:21:10;;;;;;;3.80;3.40;;;;;;;2.93;64.03;97267.13;1766737;81;21221;-40
2021/11/30 05:23:40;;;;;;;5.40;4.08;;;;;;;2.89;63.72;97259.62;1766564;81;21028;-39
2021/11/30 05:26:08;;;;;;;3.85;3.30;;;;;;;2.90;63.85;97272.44;1766807;81;21266;-39
2021/11/30 05:28:37;;;;;;;4.58;3.60;;;;;;;2.52;63.56;97207.81;1766505;81;20976;-39
2021/11/30 05:31:05;;;;;;;4.87;3.40;;;;;;;2.88;63.59;97277.36;1767074;81;21056;-40
2021/11/30 05:33:33;;;;;;;4.65;3.37;;;;;;;2.90;62.88;97272.44;1766567;81;21850;-39
2021/11/30 05:36:02;;;;;;;5.60;3.47;;;;;;;2.91;63.20;97290.02;1767007;81;21008;-39
2021/11/30 05:38:29;;;;;;;5.03;3.00;;;;;;;2.90;63.28;97289.27;1766611;81;20938;-40
2021/11/30 05:40:56;;;;;;;4.20;2.90;;;;;;;2.88;62.86;97298.77;1766709;81;21096;-40
2021/11/30 05:43:23;;;;;;;4.10;2.90;;;;;;;2.86;62.93;97304.47;1766721;81;21020;-39
2021/11/30 05:45:50;;;;;;;5.05;2.87;;;;;;;2.89;62.89;97305.11;1766682;81;21118;-39
2021/11/30 05:48:17;;;;;;;4.15;2.42;;;;;;;2.87;62.41;97314.05;1768209;81;20980;-39
2021/11/30 05:50:44;;;;;;;3.20;2.40;;;;;;;2.89;62.12;97314.48;1767102;81;21120;-39
2021/11/30 05:53:11;;;;;;;3.45;2.30;;;;;;;2.87;61.74;97346.73;1766700;81;21621;-39
2021/11/30 05:55:38;;;;;;;2.92;2.15;;;;;;;2.83;60.41;97333.86;1766707;81;21013;-39
2021/11/30 05:58:05;;;;;;;2.80;1.98;;;;;;;2.87;60.64;97356.09;1766740;81;21534;-39
2021/11/30 06:00:33;;;;;;;2.42;1.70;;;;;;;2.82;59.83;97330.41;1766351;81;21227;-39
2021/11/30 06:03:20;;;;;;;2.15;1.77;;;;;;;2.85;60.23;97358.37;1766667;81;21503;-39
2021/11/30 06:05:36;;;;;;;2.58;2.02;;;;;;;2.86;60.62;97374.05;1767493;80;21036;-39
2021/11/30 06:08:04;;;;;;;2.10;1.80;;;;;;;2.90;60.09;97380.82;1743708;81;21524;-39
2021/11/30 06:10:31;;;;;;;1.70;1.50;;;;;;;2.90;59.48;97378.14;1742403;82;21652;-39
2021/11/30 06:12:58;;;;;;;2.47;1.82;;;;;;;2.90;58.68;97386.95;1742111;82;20922;-39
2021/11/30 06:15:26;;;;;;;1.55;1.40;;;;;;;2.91;58.72;97378.33;1742337;82;20942;-39
2021/11/30 06:17:53;;;;;;;1.85;1.30;;;;;;;2.86;57.93;97382.08;1742184;82;21036;-39
2021/11/30 06:20:21;;;;;;;1.92;1.40;;;;;;;2.87;58.02;97384.19;1763417;79;21025;-39
2021/11/30 06:22:48;;;;;;;3.30;1.30;;;;;;;2.85;57.66;97376.54;1773023;81;21825;-39
2021/11/30 06:25:16;;;;;;;3.55;1.40;;;;;;;2.86;57.76;97389.33;1772652;81;21484;-39
2021/11/30 06:27:43;;;;;;;1.55;1.12;;;;;;;2.86;57.47;97379.41;1766744;79;20965;-39
2021/11/30 06:30:10;;;;;;;2.33;1.20;;;;;;;2.84;56.80;97380.91;1742288;81;21080;-39
2021/11/30 06:32:38;;;;;;;2.72;1.42;;;;;;;2.86;57.10;97404.05;1742124;82;20973;-39
2021/11/30 06:35:06;;;;;;;1.70;1.10;;;;;;;2.82;57.52;97398.64;1742328;82;21205;-39
2021/11/30 06:37:33;;;;;;;2.42;1.57;;;;;;;2.78;56.76;97398.38;1742049;82;20973;-39
2021/11/30 06:40:00;;;;;;;1.30;1.10;;;;;;;2.79;57.41;97403.38;1742557;82;20962;-39
2021/11/30 06:42:27;;;;;;;1.90;1.70;;;;;;;2.79;57.05;97409.29;1742188;82;21029;-39
2021/11/30 06:44:55;;;;;;;1.47;1.20;;;;;;;2.80;57.02;97400.91;1742278;81;21461;-39
2021/11/30 06:47:22;;;;;;;2.00;1.30;;;;;;;2.81;56.95;97402.44;1742101;82;21144;-39
2021/11/30 06:49:49;;;;;;;1.98;1.35;;;;;;;2.79;56.41;97403.38;1742216;81;20996;-39
2021/11/30 06:52:16;;;;;;;1.62;1.20;;;;;;;2.83;56.73;97396.18;1742339;82;20890;-40
2021/11/30 06:54:45;;;;;;;2.27;1.35;;;;;;;2.82;57.01;97405.33;1742304;82;21026;-39
2021/11/30 06:57:12;;;;;;;2.42;1.35;;;;;;;2.84;56.41;97409.00;1742337;81;21028;-39
2021/11/30 06:59:40;;;;;;;1.65;1.40;;;;;;;2.86;56.31;97410.73;1742382;82;21610;-39
2021/11/30 07:02:08;;;;;;;1.62;1.17;;;;;;;2.86;56.23;97394.12;1742365;82;21556;-39
2021/11/30 07:04:39;;;;;;;2.70;1.30;;;;;;;2.90;56.24;97400.33;1742430;82;21587;-39
2021/11/30 07:12:49;;;;;;;1.60;1.40;;;;;;;2.90;57.23;97400.89;1778099;80;21136;-39
2021/11/30 07:15:09;;;;;;;1.67;1.57;;;;;;;2.85;57.50;97388.58;1787321;79;20999;-39
2021/11/30 07:17:39;;;;;;;2.12;1.52;;;;;;;2.82;57.92;97399.20;1789304;79;20965;-39
2021/11/30 07:20:08;;;;;;;2.22;1.50;;;;;;;2.84;58.51;97406.32;1789330;80;21523;-39
2021/11/30 07:22:35;;;;;;;1.98;1.60;;;;;;;2.86;58.51;97398.70;1789568;79;21064;-39
2021/11/30 07:25:04;;;;;;;3.15;2.02;;;;;;;2.85;58.97;97395.27;1789452;80;21128;-39
2021/11/30 07:27:31;;;;;;;2.47;2.10;;;;;;;2.90;59.34;97401.67;1789223;80;20961;-39
2021/11/30 07:29:58;;;;;;;2.50;2.10;;;;;;;2.93;59.84;97394.81;1789445;80;21479;-39
2021/11/30 07:32:26;;;;;;;3.58;2.40;;;;;;;2.94;59.54;97393.69;1789210;80;21021;-40
2021/11/30 07:34:53;;;;;;;2.98;2.40;;;;;;;2.95;59.38;97392.57;1789585;80;21041;-39
2021/11/30 07:37:20;;;;;;;3.92;2.80;;;;;;;3.00;59.70;97393.61;1789247;80;21180;-39
2021/11/30 07:39:47;;;;;;;4.70;2.83;;;;;;;3.02;59.99;97396.13;1788617;78;21519;-39
2021/11/30 07:42:14;;;;;;;3.70;2.80;;;;;;;3.01;59.73;97390.56;1783072;80;21002;-39
2021/11/30 07:44:42;;;;;;;5.15;3.10;;;;;;;3.03;59.52;97396.90;1783328;80;20972;-39
2021/11/30 07:47:09;;;;;;;4.78;3.45;;;;;;;2.99;59.86;97388.82;1783208;80;21079;-39
2021/11/30 07:49:36;;;;;;;4.15;3.40;;;;;;;3.00;59.63;97392.27;1783224;80;21124;-39
2021/11/30 07:52:04;;;;;;;4.42;3.35;;;;;;;2.97;59.78;97381.70;1783219;80;21534;-39
2021/11/30 07:54:33;;;;;;;5.05;3.40;;;;;;;3.02;59.82;97397.47;1783264;80;21094;-39
2021/11/30 07:57:00;;;;;;;4.28;3.35;;;;;;;3.03;60.13;97397.67;1783274;80;21039;-39
2021/11/30 07:59:27;;;;;;;6.08;3.83;;;;;;;3.08;60.27;97398.50;1783500;80;21039;-39
2021/11/30 08:01:55;;;;;;;4.35;3.40;;;;;;;3.08;59.75;97414.56;1783446;80;21527;-39
2021/11/30 08:04:22;;;;;;;4.90;3.55;;;;;;;3.08;59.56;97412.67;1783608;80;21526;-39
2021/11/30 08:06:49;;;;;;;5.70;4.22;;;;;;;3.06;59.65;97409.00;1772819;80;21440;-40
2021/11/30 08:09:16;;;;;;;5.05;3.50;;;;;;;3.10;59.62;97410.98;1758433;81;21483;-39
2021/11/30 08:11:43;;;;;;;4.75;3.90;;;;;;;3.10;59.83;97414.99;1758242;81;21017;-40
2021/11/30 08:14:13;;;;;;;5.67;4.20;;;;;;;3.06;59.97;97411.67;1758449;81;21823;-39
2021/11/30 08:16:43;;;;;;;5.12;4.12;;;;;;;3.10;60.09;97417.67;1758418;81;21450;-40
2021/11/30 08:19:10;;;;;;;6.15;4.20;;;;;;;3.12;59.59;97409.48;1758200;81;20950;-39
2021/11/30 08:21:37;;;;;;;5.33;3.98;;;;;;;3.13;59.90;97418.28;1758543;81;20990;-39
2021/11/30 08:24:05;;;;;;;5.03;3.95;;;;;;;3.13;60.09;97408.91;1758334;81;21008;-39
2021/11/30 08:26:32;;;;;;;5.80;4.20;;;;;;;3.14;60.28;97409.91;1758088;81;21842;-39
2021/11/30 08:29:00;;;;;;;4.92;3.95;;;;;;;2.78;60.41;97364.36;1758256;81;21025;-39
2021/11/30 08:31:27;;;;;;;5.25;4.05;;;;;;;3.13;60.19;97411.59;1758315;81;21020;-39
2021/11/30 08:33:54;;;;;;;6.45;4.10;;;;;;;3.13;60.39;97415.61;1758310;81;20989;-39
2021/11/30 08:36:22;;;;;;;6.35;4.33;;;;;;;3.12;60.50;97426.10;1758492;81;21079;-40
2021/11/30 08:38:49;;;;;;;7.78;4.40;;;;;;;3.11;60.38;97426.66;1758330;81;21129;-39
2021/11/30 08:41:19;;;;;;;6.55;4.78;;;;;;;3.10;60.86;97412.31;1758079;81;21004;-39
2021/11/30 08:43:44;;;;;;;6.37;4.30;;;;;;;3.10;61.09;97419.76;1758136;81;21523;-39
2021/11/30 08:46:11;;;;;;;6.83;4.25;;;;;;;3.10;60.91;97419.01;1758229;81;21496;-39
2021/11/30 08:48:39;;;;;;;5.08;4.17;;;;;;;3.09;60.99;97409.42;1758227;81;21530;-39
2021/11/30 08:51:06;;;;;;;7.37;4.25;;;;;;;3.06;60.96;97421.05;1752316;80;21808;-39
2021/11/30 08:53:35;;;;;;;5.40;4.30;;;;;;;3.06;60.92;97442.46;1758084;81;21008;-39
2021/11/30 08:56:04;;;;;;;7.58;3.58;;;;;;;3.06;61.08;97434.43;1758270;81;21013;-40
2021/11/30 08:58:34;;;;;;;;;;;;;;;3.08;59.31;97425.27;1760743;81;21488;-39
2021/11/30 09:01:03;;;;;;;4.65;3.30;;;;;;;3.08;59.48;97431.41;1758268;81;20482;-39
2021/11/30 09:03:30;;;;;;;4.05;3.40;;;;;;;3.00;58.28;97427.06;1758219;81;21307;-39
2021/11/30 09:05:58;;;;;;;5.47;3.30;;;;;;;3.03;58.55;97429.80;1760514;80;21610;-39
2021/11/30 09:08:27;;;;;;;6.20;3.72;;;;;;;3.04;57.63;97415.30;1789604;79;20988;-39
2021/11/30 09:10:55;;;;;;;4.95;3.05;;;;;;;3.08;58.12;97415.34;1789307;80;20930;-39
2021/11/30 09:13:22;;;;;;;4.92;3.62;;;;;;;3.09;58.23;97419.58;1781186;79;21037;-39
2021/11/30 09:15:50;;;;;;;3.92;2.98;;;;;;;3.12;58.17;97419.41;1772898;79;21499;-39
2021/11/30 09:18:18;;;;;;;4.72;3.30;;;;;;;3.08;57.54;97413.23;1772905;79;20994;-40
2021/11/30 09:20:46;;;;;;;4.50;3.10;;;;;;;3.08;57.86;97415.34;1772894;79;21081;-40
2021/11/30 09:23:13;;;;;;;4.40;2.95;;;;;;;3.09;57.32;97410.77;1773342;81;21009;-39
2021/11/30 09:25:41;;;;;;;3.65;2.92;;;;;;;3.09;56.91;97407.53;1772954;81;20974;-39
2021/11/30 09:28:08;;;;;;;4.28;2.92;;;;;;;3.09;56.43;97401.39;1773214;80;21852;-40
2021/11/30 09:30:36;;;;;;;4.10;2.80;;;;;;;3.07;56.65;97404.42;1772885;81;21010;-40
2021/11/30 09:33:03;;;;;;;4.35;2.90;;;;;;;3.09;56.65;97402.73;1767446;81;21027;-40
2021/11/30 09:35:32;;;;;;;4.00;2.80;;;;;;;3.13;56.80;97402.22;1772413;81;21558;-39
2021/11/30 09:37:59;;;;;;;3.70;2.77;;;;;;;3.16;56.26;97406.29;1773189;81;21033;-41
2021/11/30 09:40:28;;;;;;;5.85;3.22;;;;;;;3.16;55.80;97388.88;1773070;81;21099;-39
2021/11/30 09:42:55;;;;;;;4.63;2.47;;;;;;;3.20;56.25;97403.09;1773275;79;21504;-39
2021/11/30 09:45:24;;;;;;;5.80;2.83;;;;;;;3.21;56.04;97404.65;1772907;79;21327;-39
2021/11/30 09:47:51;;;;;;;3.50;2.65;;;;;;;3.18;56.28;97392.55;1772967;81;21300;-39
2021/11/30 09:50:20;;;;;;;4.95;3.25;;;;;;;3.19;56.60;97404.25;1772777;81;21540;-39
2021/11/30 09:52:56;;;;;;;4.30;3.10;;;;;;;3.19;57.15;97406.16;1772993;79;21133;-39
2021/11/30 09:55:21;;;;;;;4.80;3.30;;;;;;;3.17;57.58;97401.71;1771888;80;20987;-39
2021/11/30 09:57:51;;;;;;;5.35;3.60;;;;;;;3.13;58.45;97404.90;1772988;79;20979;-40
2021/11/30 10:00:19;;;;;;;5.23;3.77;;;;;;;3.06;59.41;97409.56;1772818;80;20957;-39
2021/11/30 10:02:46;;;;;;;5.67;3.67;;;;;;;3.03;59.98;97417.75;1772888;81;21026;-39
2021/11/30 10:05:13;;;;;;;5.17;3.77;;;;;;;2.98;60.37;97409.23;1772840;79;21124;-39
2021/11/30 10:07:48;;;;;;;5.85;3.65;;;;;;;2.95;60.64;97398.67;1772768;81;21016;-39
2021/11/30 10:10:33;;;;;;;5.75;4.40;;;;;;;2.92;60.99;97402.63;1772731;81;21021;-40
2021/11/30 10:13:06;;;;;;;7.87;4.45;;;;;;;2.90;60.97;97415.05;1776633;80;20976;-39
2021/11/30 10:15:50;;;;;;;6.53;3.65;;;;;;;2.87;61.17;97410.39;1784359;80;21072;-40
2021/11/30 10:18:30;;;;;;;4.45;3.40;;;;;;;2.86;60.99;97410.17;1789445;80;21138;-39
2021/11/30 10:21:19;;;;;;;4.55;3.50;;;;;;;2.86;60.96;97406.16;1789377;80;20964;-40
2021/11/30 10:23:52;;;;;;;7.08;3.08;;;;;;;2.86;60.78;97407.50;1753699;81;21566;-39
2021/11/30 10:26:37;;;;;;;5.67;3.55;;;;;;;2.58;60.67;97362.86;1737812;82;21008;-39
2021/11/30 10:29:09;;;;;;;5.28;3.30;;;;;;;2.88;59.94;97405.81;1738020;82;20999;-39
2021/11/30 10:31:42;;;;;;;4.15;2.85;;;;;;;2.92;59.35;97403.41;1746133;82;21493;-39
2021/11/30 10:34:14;;;;;;;5.10;2.50;;;;;;;2.97;58.99;97411.14;1745387;81;20949;-39
2021/11/30 10:37:00;;;;;;;3.90;2.90;;;;;;;3.02;58.19;97412.19;1746275;82;20973;-39
2021/11/30 10:39:30;;;;;;;6.12;3.02;;;;;;;3.09;57.84;97422.81;1716908;82;20942;-39
2021/11/30 10:42:21;;;;;;;4.28;2.50;;;;;;;3.13;57.54;97427.66;1746332;81;21096;-40
2021/11/30 10:44:52;;;;;;;4.42;2.90;;;;;;;3.14;56.99;97421.18;1746355;82;21189;-40
2021/11/30 10:47:22;;;;;;;5.40;2.98;;;;;;;3.14;57.38;97433.22;1746184;82;21562;-39
2021/11/30 10:50:03;;;;;;;4.78;2.95;;;;;;;3.16;57.36;97433.63;1746507;82;20997;-40
2021/11/30 10:52:32;;;;;;;5.33;3.00;;;;;;;3.14;57.48;97435.91;1746091;82;21029;-40
2021/11/30 10:55:16;;;;;;;3.98;2.90;;;;;;;3.15;57.85;97430.77;1746230;81;21037;-39
2021/11/30 10:57:47;;;;;;;6.50;3.40;;;;;;;3.16;57.80;97434.96;1746042;82;21124;-39
2021/11/30 11:00:33;;;;;;;5.05;3.65;;;;;;;3.18;57.62;97438.07;1746111;81;21045;-39
2021/11/30 11:03:10;;;;;;;5.20;3.27;;;;;;;3.20;57.54;97451.86;1746214;82;21025;-39
2021/11/30 11:05:45;;;;;;;4.70;3.02;;;;;;;3.18;57.26;97447.44;1746069;81;21020;-40
2021/11/30 11:08:17;;;;;;;3.75;3.10;;;;;;;3.19;57.34;97434.27;1745987;81;21053;-39
2021/11/30 11:10:52;;;;;;;3.87;2.95;;;;;;;3.17;56.88;97441.31;1746041;82;21820;-39
2021/11/30 11:13:26;;;;;;;3.85;2.65;;;;;;;3.18;56.75;97448.78;1740731;82;21006;-40
2021/11/30 11:16:03;;;;;;;4.92;2.60;;;;;;;3.16;56.62;97434.96;1727956;82;21045;-39
2021/11/30 11:18:36;;;;;;;4.90;2.40;;;;;;;3.13;56.79;97438.36;1727727;83;21396;-39
2021/11/30 11:21:29;;;;;;;3.05;2.45;;;;;;;3.14;56.58;97441.25;1727860;82;21489;-39
2021/11/30 11:24:07;;;;;;;9.08;2.60;;;;;;;3.14;56.80;97439.92;1727676;83;21073;-39
2021/11/30 11:26:41;;;;;;;7.60;3.67;;;;;;;3.09;57.08;97447.69;1727547;83;20994;-39
2021/11/30 11:29:28;;;;;;;7.40;2.95;;;;;;;3.11;57.05;97452.09;1727776;81;20970;-39
2021/11/30 11:32:03;;;;;;;3.72;2.70;;;;;;;3.13;57.77;97459.22;1727726;83;21089;-39
2021/11/30 11:34:33;;;;;;;4.47;2.45;;;;;;;3.10;59.04;97478.66;1727960;83;21477;-39
2021/11/30 11:37:03;;;;;;;2.95;2.05;;;;;;;2.99;59.78;97485.18;1728037;83;21131;-40
2021/11/30 11:39:32;;;;;;;2.90;2.05;;;;;;;2.87;60.17;97481.88;1727759;83;20899;-39
2021/11/30 11:42:02;;;;;;;3.83;2.20;;;;;;;2.73;60.46;97485.06;1728022;83;20990;-40
2021/11/30 11:44:31;;;;;;;2.80;1.90;;;;;;;2.64;60.57;97489.85;1728123;82;21038;-40
2021/11/30 11:47:02;;;;;;;3.10;2.00;;;;;;;2.56;60.70;97481.48;1728026;83;21108;-39
2021/11/30 11:49:35;;;;;;;3.00;2.20;;;;;;;2.52;60.71;97493.98;1728108;83;21203;-39
2021/11/30 11:52:04;;;;;;;5.87;2.22;;;;;;;2.47;61.13;97479.59;1706194;83;21013;-39
2021/11/30 11:54:34;;;;;;;2.73;1.80;;;;;;;2.45;61.46;97480.49;1728346;83;20950;-39
2021/11/30 11:57:10;;;;;;;4.47;2.05;;;;;;;2.43;61.39;97470.70;1728110;83;20982;-39
2021/11/30 11:59:43;;;;;;;3.75;1.90;;;;;;;2.41;61.68;97467.05;1728008;83;21614;-40